George, South Africa

12:20 PM SAST on February 13, 2016 (GMT +0200)
George | | Change Station
CLOSE
Current Station
Airport
Location: George,
Elevation: 633 ft
Nearby Weather Stations

Elev 633 ft 34.01 °S, 22.38 °E | Updated 20 minutes ago

Mostly Cloudy
Mostly Cloudy
75 °F
Feels Like 75 °F
N
10
Wind Variable Wind from SSW

Today
High -- | Low -- °F
--% Chance of Precip.
Yesterday
High -- | Low -- °F
Precip. -- in
Pressure 29.80 in
Visibility 6.2 miles
Clouds Few 700 ft
Scattered Clouds 2500 ft
Mostly Cloudy 4700 ft
Dew Point 66 °F
Humidity 73%
Rainfall 0.00 in
Snow Depth Not available.
6:03 AM 7:25 PM
Waxing Crescent, 29% visible
METAR FAGG 131000Z 20009KT 9999 FEW007 SCT025 BKN047 24/19 Q1009
Pressure 29.80 in
Visibility 6.2 miles
Clouds Few 700 ft
Scattered Clouds 2500 ft
Mostly Cloudy 4700 ft
Dew Point 66 °F
Humidity 73%
Rainfall 0.00 in
Snow Depth Not available.
6:03 AM 7:25 PM
Waxing Crescent, 29% visible
METAR FAGG 131000Z 20009KT 9999 FEW007 SCT025 BKN047 24/19 Q1009

10-Day Weather Forecast

No radar image for this location.
×

Almanac

Astronomy

Feb. 13, 2016 Rise Set
Actual Time
Civil Twilight
Nautical Twilight
Astronomical Twilight
Moon
Length of Visible Light
Length of Day
Tomorrow will be .
, % of the Moon is Illuminated

Today's Extremes

Country Highs Country Lows

Community

WunderPhotos

Upload Photos

1,892,536 photos uploaded!

WunderBlog® & News

Nearby

Air Quality

  Air Quality AQ Index Pollutant
Not available.

Snow Depth

Station Depth Elevation

Earthquake Activity

City Distance Mag. Time & Date
Minimum magnitude displayed is 2.5.

Coastal Water Temperatures

Place Temperature

Stations

Nearby Weather Stations

Station Location Temp. Windchill Dew Point Humidity Wind Precip. Elev Updated Type